Jock — WDF2423 — position and weather

sailwx.info

Track history (hours):
 
Tides and Currents Weather Stations Pressure Air Temp Water Temp Dewpoint Dewpoint Depression Visibility Wind Speed Wind Dir Waves Ship Positions

Jock

Owner: Enterprise Marine Services, LLC, San Antonio, TX. More information available from US FCC via Universal Licensing System and Coast Guard Vessel Documentation Center.

Last reported at 2017-Aug-21 02:23 UTC. Time now 2017-Aug-21 02:50 UTC.
Position N 29°48' W 095°04'.

Length 28 m; draft 3 m.

Type: Other ship. MMSI: 367003460.

Date/timePositionNaut miles runAvg speedWind from/ knotsBaromVisibWave heightAir tempDewpointWater temp
2017-Aug-21 02:23N 29°48' W 095°04'1 1.2
2017-Aug-21 01:33N 29°47' W 095°05'3 4.6
2017-Aug-21 00:50N 29°44' W 095°07'1 0.0
2017-Aug-19 17:04N 29°44' W 095°08'1 5.6
2017-Aug-19 16:55N 29°44' W 095°07'2 3.7
2017-Aug-19 16:23N 29°46' W 095°05'1 1.5
2017-Aug-19 15:43N 29°45' W 095°04'2 7.3
2017-Aug-19 15:29N 29°44' W 095°03'3 6.7
2017-Aug-19 14:58N 29°42' W 094°60'7 7.7
2017-Aug-19 14:01N 29°35' W 094°56'70 4.3
2017-Aug-18 21:45N 30°04' W 093°42'1 6.1
2017-Aug-18 21:30N 30°04' W 093°40'3 5.8
2017-Aug-18 21:00N 30°04' W 093°37'3 5.3
2017-Aug-18 20:30N 30°04' W 093°34'3 5.4
2017-Aug-18 20:00N 30°04' W 093°31'3 5.6
2017-Aug-18 19:30N 30°04' W 093°27'3 5.6
2017-Aug-18 19:00N 30°04' W 093°24'3 5.1
2017-Aug-18 18:30N 30°04' W 093°21'2 4.9
2017-Aug-18 18:00N 30°06' W 093°19'2 3.3
2017-Aug-18 17:30N 30°05' W 093°18'1 2.1
2017-Aug-18 17:00N 30°05' W 093°17'1 1.3
2017-Aug-18 16:30N 30°04' W 093°16'0 0.2
2017-Aug-18 16:00N 30°04' W 093°16'2 4.2
2017-Aug-18 15:30N 30°02' W 093°15'3 5.0
2017-Aug-18 15:00N 29°60' W 093°13'3 5.5
2017-Aug-18 14:30N 29°58' W 093°11'5 4.9
2017-Aug-18 13:29N 29°56' W 093°06'37 5.0
2017-Aug-18 05:56N 29°53' W 092°23'2 4.6
2017-Aug-18 05:30N 29°51' W 092°22'2 4.7
2017-Aug-18 05:00N 29°50' W 092°19'2 4.3
2017-Aug-18 04:30N 29°49' W 092°17'3 5.1
2017-Aug-18 04:00N 29°48' W 092°14'2 4.4
2017-Aug-18 03:30N 29°47' W 092°12'2 3.8
2017-Aug-18 03:00N 29°47' W 092°10'2 4.6
2017-Aug-18 02:30N 29°47' W 092°07'3 5.4
2017-Aug-18 02:00N 29°48' W 092°05'0 1.0
2017-Aug-18 01:30N 29°48' W 092°04'0 0.4
2017-Aug-18 01:00N 29°49' W 092°04'2 4.2
2017-Aug-18 00:30N 29°49' W 092°02'  
2017-Aug-15 01:24N 29°51' W 091°57'2 6.3
2017-Aug-15 01:00N 29°50' W 091°60'3 6.4
2017-Aug-15 00:31N 29°49' W 092°03'3 6.1
2017-Aug-15 00:00N 29°48' W 092°06'3 6.1
2017-Aug-14 23:30N 29°47' W 092°10'3 5.1
2017-Aug-14 23:00N 29°47' W 092°13'3 5.0
2017-Aug-14 22:30N 29°48' W 092°15'3 5.6
2017-Aug-14 22:00N 29°50' W 092°18'41 3.8
2017-Aug-14 11:11N 29°56' W 093°05'1 5.2
2017-Aug-14 10:56N 29°56' W 093°06'3 6.0
2017-Aug-14 10:28N 29°56' W 093°09'3 6.0
2017-Aug-14 10:00N 29°58' W 093°11'3 5.9
2017-Aug-14 09:30N 30°00' W 093°14'2 4.1
2017-Aug-14 09:00N 30°02' W 093°15'3 5.1
2017-Aug-14 08:30N 30°04' W 093°16'2 3.3
2017-Aug-14 08:00N 30°05' W 093°18'1 1.8
2017-Aug-14 07:30N 30°06' W 093°19'2 3.5
2017-Aug-14 07:00N 30°05' W 093°20'2 4.9
2017-Aug-14 06:30N 30°04' W 093°22'3 5.0
2017-Aug-14 06:00N 30°04' W 093°25'3 6.2
2017-Aug-14 05:30N 30°04' W 093°29'80 5.3
2017-Aug-13 14:20N 29°32' W 094°54'3 8.9
2017-Aug-13 14:01N 29°34' W 094°56'4 8.8
2017-Aug-13 13:30N 29°38' W 094°58'4 8.7
2017-Aug-13 13:00N 29°42' W 095°00'5 8.1
2017-Aug-13 12:24N 29°46' W 095°04'3 0.9
2017-Aug-13 08:47N 29°44' W 095°08'0 0.0
2017-Aug-13 08:19N 29°44' W 095°08'0 0.0
2017-Aug-13 07:26N 29°44' W 095°08'0 0.0
2017-Aug-13 07:00N 29°44' W 095°08'0 0.0
2017-Aug-13 06:26N 29°44' W 095°08'0 0.0
2017-Aug-13 05:56N 29°44' W 095°08'0 0.0
2017-Aug-13 05:31N 29°44' W 095°08'0 0.0
2017-Aug-13 04:44N 29°44' W 095°08'0 0.0
2017-Aug-12 18:58N 29°44' W 095°08'1 2.8
2017-Aug-12 18:31N 29°45' W 095°06'3 2.2
2017-Aug-12 17:09N 29°47' W 095°05'3 5.8
2017-Aug-12 16:32N 29°44' W 095°07'  
Track history (hours):
 
Tides and Currents Weather Stations Pressure Air Temp Water Temp Dewpoint Dewpoint Depression Visibility Wind Speed Wind Dir Waves Ship Positions

Jock

Owner: Enterprise Marine Services, LLC, San Antonio, TX. More information available from US FCC via Universal Licensing System and Coast Guard Vessel Documentation Center.

Last reported at 2017-Aug-21 02:23 UTC. Time now 2017-Aug-21 02:50 UTC.
Position N 29°48' W 095°04'.

Length 28 m; draft 3 m.

Type: Other ship. MMSI: 367003460.

Date/timePositionNaut miles runAvg speedWind from/ knotsBaromVisibWave heightAir tempDewpointWater temp
2017-Aug-21 02:23N 29°48' W 095°04'1 1.2
2017-Aug-21 01:33N 29°47' W 095°05'3 4.6
2017-Aug-21 00:50N 29°44' W 095°07'1 0.0
2017-Aug-19 17:04N 29°44' W 095°08'1 5.6
2017-Aug-19 16:55N 29°44' W 095°07'2 3.7
2017-Aug-19 16:23N 29°46' W 095°05'1 1.5
2017-Aug-19 15:43N 29°45' W 095°04'2 7.3
2017-Aug-19 15:29N 29°44' W 095°03'3 6.7
2017-Aug-19 14:58N 29°42' W 094°60'7 7.7
2017-Aug-19 14:01N 29°35' W 094°56'70 4.3
2017-Aug-18 21:45N 30°04' W 093°42'1 6.1
2017-Aug-18 21:30N 30°04' W 093°40'3 5.8
2017-Aug-18 21:00N 30°04' W 093°37'3 5.3
2017-Aug-18 20:30N 30°04' W 093°34'3 5.4
2017-Aug-18 20:00N 30°04' W 093°31'3 5.6
2017-Aug-18 19:30N 30°04' W 093°27'3 5.6
2017-Aug-18 19:00N 30°04' W 093°24'3 5.1
2017-Aug-18 18:30N 30°04' W 093°21'2 4.9
2017-Aug-18 18:00N 30°06' W 093°19'2 3.3
2017-Aug-18 17:30N 30°05' W 093°18'1 2.1
2017-Aug-18 17:00N 30°05' W 093°17'1 1.3
2017-Aug-18 16:30N 30°04' W 093°16'0 0.2
2017-Aug-18 16:00N 30°04' W 093°16'2 4.2
2017-Aug-18 15:30N 30°02' W 093°15'3 5.0
2017-Aug-18 15:00N 29°60' W 093°13'3 5.5
2017-Aug-18 14:30N 29°58' W 093°11'5 4.9
2017-Aug-18 13:29N 29°56' W 093°06'37 5.0
2017-Aug-18 05:56N 29°53' W 092°23'2 4.6
2017-Aug-18 05:30N 29°51' W 092°22'2 4.7
2017-Aug-18 05:00N 29°50' W 092°19'2 4.3
2017-Aug-18 04:30N 29°49' W 092°17'3 5.1
2017-Aug-18 04:00N 29°48' W 092°14'2 4.4
2017-Aug-18 03:30N 29°47' W 092°12'2 3.8
2017-Aug-18 03:00N 29°47' W 092°10'2 4.6
2017-Aug-18 02:30N 29°47' W 092°07'3 5.4
2017-Aug-18 02:00N 29°48' W 092°05'0 1.0
2017-Aug-18 01:30N 29°48' W 092°04'0 0.4
2017-Aug-18 01:00N 29°49' W 092°04'2 4.2
2017-Aug-18 00:30N 29°49' W 092°02'  
2017-Aug-15 01:24N 29°51' W 091°57'2 6.3
2017-Aug-15 01:00N 29°50' W 091°60'3 6.4
2017-Aug-15 00:31N 29°49' W 092°03'3 6.1
2017-Aug-15 00:00N 29°48' W 092°06'3 6.1
2017-Aug-14 23:30N 29°47' W 092°10'3 5.1
2017-Aug-14 23:00N 29°47' W 092°13'3 5.0
2017-Aug-14 22:30N 29°48' W 092°15'3 5.6
2017-Aug-14 22:00N 29°50' W 092°18'41 3.8
2017-Aug-14 11:11N 29°56' W 093°05'1 5.2
2017-Aug-14 10:56N 29°56' W 093°06'3 6.0
2017-Aug-14 10:28N 29°56' W 093°09'3 6.0
2017-Aug-14 10:00N 29°58' W 093°11'3 5.9
2017-Aug-14 09:30N 30°00' W 093°14'2 4.1
2017-Aug-14 09:00N 30°02' W 093°15'3 5.1
2017-Aug-14 08:30N 30°04' W 093°16'2 3.3
2017-Aug-14 08:00N 30°05' W 093°18'1 1.8
2017-Aug-14 07:30N 30°06' W 093°19'2 3.5
2017-Aug-14 07:00N 30°05' W 093°20'2 4.9
2017-Aug-14 06:30N 30°04' W 093°22'3 5.0
2017-Aug-14 06:00N 30°04' W 093°25'3 6.2
2017-Aug-14 05:30N 30°04' W 093°29'80 5.3
2017-Aug-13 14:20N 29°32' W 094°54'3 8.9
2017-Aug-13 14:01N 29°34' W 094°56'4 8.8
2017-Aug-13 13:30N 29°38' W 094°58'4 8.7
2017-Aug-13 13:00N 29°42' W 095°00'5 8.1
2017-Aug-13 12:24N 29°46' W 095°04'3 0.9
2017-Aug-13 08:47N 29°44' W 095°08'0 0.0
2017-Aug-13 08:19N 29°44' W 095°08'0 0.0
2017-Aug-13 07:26N 29°44' W 095°08'0 0.0
2017-Aug-13 07:00N 29°44' W 095°08'0 0.0
2017-Aug-13 06:26N 29°44' W 095°08'0 0.0
2017-Aug-13 05:56N 29°44' W 095°08'0 0.0
2017-Aug-13 05:31N 29°44' W 095°08'0 0.0
2017-Aug-13 04:44N 29°44' W 095°08'0 0.0
2017-Aug-12 18:58N 29°44' W 095°08'1 2.8
2017-Aug-12 18:31N 29°45' W 095°06'3 2.2
2017-Aug-12 17:09N 29°47' W 095°05'3 5.8
2017-Aug-12 16:32N 29°44' W 095°07'  

Dump ship's entire track history